Time;durP1;ratioP1;P1;durP2;ratioP2;P2;SDS_P1;SDS_P2;PMS_P1;PMS_P2;Temp;Humidity;BMP_temperature;BMP_pressure;BME280_temperature;BME280_humidity;BME280_pressure;Samples;Min_cycle;Max_cycle;Signal;HPM_P1;HPM_P2
2023/02/07 07:54:15;;;;;;;3.23;1.10;;;6.70;99.90;;;;;;4980814;28;20213;-70
2023/02/07 07:56:44;;;;;;;7.13;1.00;;;6.70;99.90;;;;;;4976513;28;20198;-70
2023/02/07 07:59:13;;;;;;;3.30;1.03;;;6.80;99.90;;;;;;4981771;28;20324;-70
2023/02/07 08:01:41;;;;;;;1.60;1.13;;;6.90;99.90;;;;;;4980882;28;20201;-70
2023/02/07 08:04:10;;;;;;;4.77;1.10;;;6.90;99.90;;;;;;4984736;28;20190;-70
2023/02/07 08:06:44;;;;;;;2.33;1.07;;;7.00;99.90;;;;;;4980289;28;20917;-70
2023/02/07 08:09:14;;;;;;;2.00;0.90;;;7.00;99.90;;;;;;4984243;28;20327;-70
2023/02/07 08:11:46;;;;;;;1.77;1.07;;;7.20;99.90;;;;;;4987756;28;20223;-70
2023/02/07 08:14:15;;;;;;;3.27;0.70;;;7.20;99.90;;;;;;4989282;28;20201;-70
2023/02/07 08:16:47;;;;;;;1.80;0.80;;;7.10;99.90;;;;;;4983556;28;20316;-70
2023/02/07 08:19:24;;;;;;;3.40;0.80;;;7.30;99.90;;;;;;4983885;28;20198;-70
2023/02/07 08:21:52;;;;;;;2.30;0.83;;;7.40;99.90;;;;;;4986950;28;20223;-70
2023/02/07 08:24:19;;;;;;;2.97;0.77;;;7.20;99.90;;;;;;4979520;28;20189;-71
2023/02/07 08:26:47;;;;;;;4.57;1.40;;;7.20;99.90;;;;;;4977951;28;20256;-70
2023/02/07 08:29:21;;;;;;;2.87;0.67;;;7.30;99.90;;;;;;4979679;28;20251;-70
2023/02/07 08:31:50;;;;;;;2.33;0.90;;;7.40;99.90;;;;;;4977464;28;20284;-70
2023/02/07 08:34:23;;;;;;;2.70;0.93;;;7.40;99.90;;;;;;4982993;28;20516;-70
2023/02/07 08:36:53;;;;;;;2.80;0.70;;;7.50;99.90;;;;;;4979455;28;20201;-70
2023/02/07 08:39:25;;;;;;;4.70;0.90;;;7.60;99.90;;;;;;4994080;28;20209;-70
2023/02/07 08:42:06;;;;;;;3.27;0.80;;;7.80;99.90;;;;;;4972666;28;20233;-70
2023/02/07 08:44:37;;;;;;;2.93;0.97;;;7.90;99.90;;;;;;4978096;28;20965;-70
2023/02/07 08:47:05;;;;;;;3.40;1.00;;;7.90;99.90;;;;;;4976383;28;20263;-70
2023/02/07 08:49:35;;;;;;;2.57;1.00;;;7.80;99.90;;;;;;4968767;28;20280;-70
2023/02/07 08:52:03;;;;;;;6.63;1.10;;;7.80;99.90;;;;;;4969568;28;20725;-70
2023/02/07 08:54:31;;;;;;;4.37;1.07;;;7.80;99.90;;;;;;4979734;28;20216;-70
2023/02/07 08:57:00;;;;;;;2.87;1.10;;;7.70;99.90;;;;;;4978821;28;20950;-70
2023/02/07 08:59:31;;;;;;;1.30;0.60;;;7.80;99.90;;;;;;4980208;28;20512;-70
2023/02/07 09:01:59;;;;;;;1.90;0.80;;;8.00;99.90;;;;;;4978261;28;20331;-70
2023/02/07 09:04:31;;;;;;;3.00;1.10;;;8.10;99.90;;;;;;4984757;28;20181;-70
2023/02/07 09:07:01;;;;;;;10.17;1.07;;;8.20;99.90;;;;;;4986506;28;20192;-70
2023/02/07 09:09:39;;;;;;;2.97;1.00;;;8.30;99.90;;;;;;4976355;28;20193;-70
2023/02/07 09:12:10;;;;;;;2.97;1.00;;;8.30;99.90;;;;;;4974724;28;20197;-70
2023/02/07 09:14:41;;;;;;;5.13;1.30;;;8.30;99.90;;;;;;4974555;28;20185;-70
2023/02/07 09:17:08;;;;;;;4.03;1.20;;;8.20;99.90;;;;;;4982489;28;20300;-70
2023/02/07 09:19:39;;;;;;;4.23;1.03;;;8.20;99.90;;;;;;4979589;28;20217;-70
2023/02/07 09:22:13;;;;;;;4.33;1.13;;;8.00;99.90;;;;;;4991649;28;20308;-70
2023/02/07 09:24:48;;;;;;;3.23;0.93;;;8.10;99.90;;;;;;4988846;28;20665;-70
2023/02/07 09:27:19;;;;;;;3.80;0.93;;;8.10;99.90;;;;;;4979780;28;20228;-71
2023/02/07 09:29:50;;;;;;;4.80;1.00;;;8.20;99.90;;;;;;4985634;28;20274;-70
2023/02/07 09:32:48;;;;;;;;;;;;;;;;;;;;;
2023/02/07 09:35:30;;;;;;;1.97;0.80;;;8.50;99.90;;;;;;4980052;28;20783;-70
2023/02/07 09:38:01;;;;;;;6.90;1.17;;;8.40;99.90;;;;;;4982089;28;20220;-70
2023/02/07 09:40:35;;;;;;;1.73;0.83;;;8.40;99.90;;;;;;4980006;28;20204;-70
2023/02/07 09:43:58;;;;;;;;;;;;;;;;;;;;;
2023/02/07 09:46:45;;;;;;;6.27;1.20;;;8.50;99.90;;;;;;4977838;28;20192;-70
2023/02/07 09:49:47;;;;;;;6.10;1.07;;;8.60;99.90;;;;;;4985006;28;20284;-70
2023/02/07 09:52:40;;;;;;;3.33;1.10;;;8.60;99.90;;;;;;4978270;28;20618;-70
2023/02/07 09:55:32;;;;;;;2.43;0.90;;;8.70;99.90;;;;;;4988575;28;20181;-70
2023/02/07 09:59:05;;;;;;;3.43;1.00;;;8.60;99.90;;;;;;4982933;28;20224;-70
2023/02/07 10:01:45;;;;;;;5.60;1.10;;;8.60;99.90;;;;;;4927225;29;20667;-70
2023/02/07 10:04:41;;;;;;;6.93;1.10;;;8.80;99.90;;;;;;4984121;28;20207;-70
2023/02/07 10:07:14;;;;;;;9.07;1.00;;;8.50;99.90;;;;;;4986814;28;20744;-70
2023/02/07 10:09:46;;;;;;;3.40;1.10;;;8.60;99.90;;;;;;4984512;28;21012;-70
2023/02/07 10:13:06;;;;;;;1.13;0.90;;;8.70;99.90;;;;;;4978464;28;20289;-71
2023/02/07 10:15:55;;;;;;;2.33;1.13;;;8.80;99.90;;;;;;4992815;28;20281;-71
2023/02/07 10:18:50;;;;;;;4.07;1.20;;;8.90;99.90;;;;;;4976188;28;20443;-71
2023/02/07 10:21:43;;;;;;;5.03;1.40;;;9.10;99.90;;;;;;4980072;28;20894;-70
2023/02/07 10:24:39;;;;;;;2.43;0.90;;;9.30;99.90;;;;;;4974016;28;20189;-70
2023/02/07 10:27:31;;;;;;;3.83;0.93;;;9.30;99.90;;;;;;4976533;28;20301;-70
2023/02/07 10:30:28;;;;;;;3.43;1.27;;;9.30;99.90;;;;;;4980664;28;20200;-70
2023/02/07 10:33:59;;;;;;;3.90;1.30;;;9.30;99.90;;;;;;4979800;28;20321;-70
2023/02/07 10:36:37;;;;;;;3.30;1.07;;;9.40;99.90;;;;;;4980368;28;21035;-71
2023/02/07 10:39:25;;;;;;;3.30;1.10;;;9.30;99.90;;;;;;4981498;28;20328;-71
2023/02/07 10:41:59;;;;;;;3.23;1.13;;;9.20;99.90;;;;;;4980478;28;20193;-71
2023/02/07 10:44:37;;;;;;;3.73;1.10;;;9.00;99.90;;;;;;4977255;28;20181;-70
2023/02/07 10:47:22;;;;;;;7.63;1.23;;;9.10;99.90;;;;;;4992478;28;20193;-70
2023/02/07 10:49:58;;;;;;;6.60;1.30;;;9.50;99.90;;;;;;4980869;28;20198;-71
2023/02/07 10:52:34;;;;;;;6.67;1.20;;;10.00;99.90;;;;;;4967559;28;20189;-70
2023/02/07 10:55:13;;;;;;;6.40;1.33;;;10.40;99.90;;;;;;4982934;28;20791;-71
2023/02/07 10:57:53;;;;;;;11.50;1.33;;;10.70;99.90;;;;;;4979587;28;20400;-71
2023/02/07 11:00:57;;;;;;;4.10;1.03;;;11.00;99.90;;;;;;4980057;28;20280;-71
2023/02/07 11:03:25;;;;;;;2.50;1.00;;;11.20;99.90;;;;;;4977742;28;20217;-71
2023/02/07 11:06:06;;;;;;;3.53;1.00;;;11.40;99.90;;;;;;4993887;28;20192;-71
2023/02/07 11:08:37;;;;;;;2.13;0.93;;;11.30;99.90;;;;;;4979405;28;20213;-71
2023/02/07 11:11:35;;;;;;;4.47;1.10;;;11.40;99.90;;;;;;4972908;28;20525;-71
2023/02/07 11:14:07;;;;;;;2.53;0.90;;;11.00;99.90;;;;;;4980495;28;20193;-71
2023/02/07 11:16:37;;;;;;;3.63;1.00;;;11.40;99.90;;;;;;4972676;28;20685;-71
2023/02/07 11:19:23;;;;;;;4.13;1.10;;;11.90;99.90;;;;;;4981974;28;20213;-71
2023/02/07 11:22:22;;;;;;;2.73;1.20;;;12.00;99.90;;;;;;4979525;28;20879;-71
2023/02/07 11:25:08;;;;;;;2.30;1.10;;;12.00;99.90;;;;;;4979302;28;20191;-71
2023/02/07 11:27:45;;;;;;;3.90;1.00;;;12.30;99.90;;;;;;4978048;28;20189;-71
2023/02/07 11:30:21;;;;;;;23.37;1.60;;;12.20;99.90;;;;;;4978279;28;20182;-70
2023/02/07 11:33:22;;;;;;;7.87;1.40;;;11.70;99.90;;;;;;4982935;28;20579;-70
2023/02/07 11:36:22;;;;;;;3.67;1.20;;;11.10;99.90;;;;;;4977448;28;20912;-70
2023/02/07 11:39:22;;;;;;;4.10;1.00;;;10.80;99.90;;;;;;4973570;28;20594;-71
2023/02/07 11:42:00;;;;;;;3.30;1.00;;;10.70;99.90;;;;;;4973095;28;20201;-71
2023/02/07 11:44:31;;;;;;;4.10;1.10;;;10.60;99.90;;;;;;4979042;28;20213;-71
2023/02/07 11:47:05;;;;;;;3.83;1.00;;;10.60;99.90;;;;;;4981327;28;20277;-71
2023/02/07 11:49:49;;;;;;;4.17;1.17;;;10.70;99.90;;;;;;4976277;28;20587;-70
2023/02/07 11:52:25;;;;;;;2.53;0.90;;;10.60;99.90;;;;;;4979912;28;20232;-70
2023/02/07 11:55:07;;;;;;;8.40;1.10;;;10.60;99.90;;;;;;4986728;28;20194;-70
2023/02/07 11:57:35;;;;;;;4.27;1.17;;;10.60;99.90;;;;;;4972525;28;20202;-71
2023/02/07 12:00:29;;;;;;;3.77;1.30;;;10.60;99.90;;;;;;4980056;28;20228;-71
2023/02/07 12:03:21;;;;;;;4.03;1.10;;;10.60;99.90;;;;;;4981440;28;20256;-71
2023/02/07 12:05:59;;;;;;;3.07;1.00;;;10.70;99.90;;;;;;4975694;28;20305;-71
2023/02/07 12:08:51;;;;;;;4.90;1.00;;;10.60;99.90;;;;;;4974491;28;20193;-71
2023/02/07 12:11:32;;;;;;;2.33;1.10;;;10.50;99.90;;;;;;4972326;28;20260;-71
2023/02/07 12:14:32;;;;;;;2.77;0.80;;;10.50;99.90;;;;;;4975719;28;20554;-71
2023/02/07 12:17:08;;;;;;;2.57;1.03;;;10.40;99.90;;;;;;4974811;28;20197;-71
2023/02/07 12:20:04;;;;;;;;;;;;;;;;;;;;;
2023/02/07 12:23:10;;;;;;;6.97;1.30;;;10.30;99.90;;;;;;4975405;28;20829;-71
2023/02/07 12:25:56;;;;;;;3.53;0.80;;;10.30;99.90;;;;;;4974733;28;20201;-71
2023/02/07 12:29:18;;;;;;;2.90;0.93;;;10.30;99.90;;;;;;4981760;28;20252;-71
2023/02/07 12:32:25;;;;;;;4.23;1.30;;;10.20;99.90;;;;;;4935521;28;20806;-71
2023/02/07 12:35:20;;;;;;;4.50;0.93;;;10.30;99.90;;;;;;4964875;28;20228;-71
2023/02/07 12:37:55;;;;;;;3.30;1.10;;;10.20;99.90;;;;;;4967235;28;20198;-71
2023/02/07 12:40:56;;;;;;;3.47;1.20;;;10.00;99.90;;;;;;4974073;28;20267;-71
2023/02/07 12:43:36;;;;;;;3.53;1.10;;;10.00;99.90;;;;;;4977128;28;20244;-71
2023/02/07 12:46:41;;;;;;;2.70;1.03;;;10.10;99.90;;;;;;4978793;28;20193;-71
2023/02/07 12:49:48;;;;;;;3.17;1.23;;;10.20;99.90;;;;;;4963981;28;20540;-71
2023/02/07 12:53:22;;;;;;;2.13;0.90;;;10.10;99.90;;;;;;4979296;28;20204;-71
2023/02/07 12:56:26;;;;;;;2.07;0.60;;;10.10;99.90;;;;;;4958286;28;20201;-71
2023/02/07 12:59:29;;;;;;;5.77;1.13;;;10.00;99.90;;;;;;4983189;28;20216;-71
2023/02/07 13:02:52;;;;;;;4.60;0.93;;;9.80;99.90;;;;;;4985201;28;20193;-71
2023/02/07 13:05:42;;;;;;;5.83;1.00;;;9.60;99.90;;;;;;4970431;28;20204;-71
2023/02/07 13:08:28;;;;;;;1.30;1.00;;;9.40;99.90;;;;;;4979756;28;20190;-71
2023/02/07 13:11:38;;;;;;;3.83;1.00;;;9.30;99.90;;;;;;4976861;28;20189;-71
2023/02/07 13:14:57;;;;;;;3.90;1.00;;;9.40;99.90;;;;;;4976784;28;20213;-71
2023/02/07 13:17:46;;;;;;;5.27;1.27;;;9.40;99.90;;;;;;4974352;28;20197;-71
2023/02/07 13:20:31;;;;;;;2.03;0.83;;;9.40;99.90;;;;;;4976936;28;20253;-71
2023/02/07 13:23:33;;;;;;;2.70;0.63;;;9.50;99.90;;;;;;4977884;28;20200;-71
2023/02/07 13:26:38;;;;;;;;;;;;;;;;;;;;;
2023/02/07 13:29:31;;;;;;;4.83;1.10;;;9.70;99.90;;;;;;4971710;28;20212;-71
2023/02/07 13:32:19;;;;;;;4.77;1.40;;;9.30;99.90;;;;;;4973929;28;20615;-71
2023/02/07 13:35:16;;;;;;;1.10;0.80;;;9.30;99.90;;;;;;4975163;28;20197;-71
2023/02/07 13:38:13;;;;;;;4.47;1.00;;;9.40;99.90;;;;;;4989318;28;20189;-71
2023/02/07 13:41:23;;;;;;;3.83;0.93;;;9.50;99.90;;;;;;4982201;28;20191;-71
2023/02/07 13:44:14;;;;;;;3.03;0.97;;;9.40;99.90;;;;;;4982597;28;20208;-71
2023/02/07 13:47:16;;;;;;;4.33;1.03;;;9.20;99.90;;;;;;4985553;28;20193;-71
2023/02/07 13:50:11;;;;;;;4.03;1.33;;;9.20;99.90;;;;;;4973041;28;20324;-71
2023/02/07 13:52:54;;;;;;;5.33;1.20;;;9.30;99.90;;;;;;4975553;28;20201;-71
2023/02/07 13:55:38;;;;;;;3.20;1.10;;;9.30;99.90;;;;;;4983679;28;20193;-71
2023/02/07 14:01:31;;;;;;;3.03;1.10;;;9.20;99.90;;;;;;4969326;28;20209;-71
2023/02/07 14:04:14;;;;;;;2.43;0.90;;;9.30;99.90;;;;;;4980070;28;20196;-71
2023/02/07 14:07:10;;;;;;;6.13;1.33;;;9.20;99.90;;;;;;4976028;28;20203;-71
2023/02/07 14:09:47;;;;;;;2.33;1.00;;;9.10;99.90;;;;;;4979710;28;20197;-71
2023/02/07 14:12:37;;;;;;;1.73;0.80;;;9.10;99.90;;;;;;4973777;28;20181;-71
2023/02/07 14:15:33;;;;;;;1.47;1.07;;;9.10;99.90;;;;;;4975299;28;20197;-71
2023/02/07 14:18:33;;;;;;;3.17;1.00;;;9.00;99.90;;;;;;4973227;28;20189;-71
2023/02/07 14:21:31;;;;;;;1.87;1.03;;;8.90;99.90;;;;;;4966524;28;20212;-71
2023/02/07 14:24:36;;;;;;;2.93;1.20;;;8.80;99.90;;;;;;4977277;28;20193;-71
2023/02/07 14:27:25;;;;;;;3.40;1.50;;;8.70;99.90;;;;;;4980423;28;20195;-71
2023/02/07 14:30:01;;;;;;;6.47;1.50;;;8.70;99.90;;;;;;4989697;28;20207;-71
2023/02/07 14:32:41;;;;;;;4.10;1.20;;;8.60;99.90;;;;;;4972184;28;20189;-71
2023/02/07 14:35:28;;;;;;;2.60;1.23;;;8.60;99.90;;;;;;4979879;28;20208;-71
2023/02/07 14:38:22;;;;;;;2.70;1.13;;;8.50;99.90;;;;;;4976173;28;20197;-71
2023/02/07 14:41:16;;;;;;;5.13;1.00;;;8.50;99.90;;;;;;4978828;28;20233;-71
2023/02/07 14:44:06;;;;;;;7.23;1.33;;;8.50;99.90;;;;;;4990532;28;20205;-71
2023/02/07 14:46:50;;;;;;;3.80;1.53;;;8.30;99.90;;;;;;4973415;28;20647;-71
2023/02/07 14:49:23;;;;;;;2.43;1.30;;;8.20;99.90;;;;;;4977434;28;20279;-71
2023/02/07 14:52:05;;;;;;;2.97;1.17;;;7.80;99.90;;;;;;4973922;28;20308;-71
2023/02/07 14:54:57;;;;;;;2.13;1.20;;;7.60;99.90;;;;;;4985038;28;20261;-71
2023/02/07 14:58:04;;;;;;;2.20;1.27;;;7.20;99.90;;;;;;4982684;28;20280;-71
2023/02/07 15:01:11;;;;;;;4.47;1.30;;;6.90;99.90;;;;;;4979559;28;20189;-71
2023/02/07 15:04:51;;;;;;;3.13;1.47;;;6.60;99.90;;;;;;4968597;28;20201;-71
2023/02/07 15:07:18;;;;;;;1.87;1.30;;;6.80;99.90;;;;;;4992198;28;20210;-71
2023/02/07 15:09:46;;;;;;;3.23;1.37;;;7.00;99.90;;;;;;4984863;28;20731;-71
2023/02/07 15:12:25;;;;;;;1.80;1.40;;;7.00;99.90;;;;;;4982013;28;20818;-71
2023/02/07 15:14:58;;;;;;;2.93;1.50;;;7.00;99.90;;;;;;4979631;28;20554;-71
2023/02/07 15:17:26;;;;;;;4.97;1.50;;;7.10;99.90;;;;;;4980788;28;20185;-71
2023/02/07 15:19:56;;;;;;;4.00;1.60;;;7.10;99.90;;;;;;4977187;28;20248;-71
2023/02/07 15:22:28;;;;;;;4.13;1.77;;;7.10;99.90;;;;;;4984067;28;20205;-71
2023/02/07 15:25:00;;;;;;;7.30;2.23;;;6.90;99.90;;;;;;4981762;28;20197;-71
2023/02/07 15:27:29;;;;;;;3.40;2.00;;;6.50;99.90;;;;;;4978256;28;20275;-71
2023/02/07 15:30:07;;;;;;;4.43;2.80;;;6.20;99.90;;;;;;4992618;28;20913;-71
2023/02/07 15:32:44;;;;;;;4.67;2.97;;;5.80;99.90;;;;;;4982915;28;20189;-71
2023/02/07 15:35:28;;;;;;;6.67;2.97;;;5.70;99.90;;;;;;4964862;28;20563;-71
2023/02/07 15:38:15;;;;;;;7.80;3.43;;;5.60;99.90;;;;;;4980878;28;20201;-71
2023/02/07 15:40:41;;;;;;;10.97;3.33;;;5.50;99.90;;;;;;4973998;28;20191;-71
2023/02/07 15:43:32;;;;;;;6.00;2.83;;;5.30;99.90;;;;;;4983606;28;20185;-71
2023/02/07 15:46:10;;;;;;;6.90;2.77;;;5.20;99.90;;;;;;4977690;28;20193;-71
2023/02/07 15:48:56;;;;;;;3.97;2.50;;;5.20;99.90;;;;;;4981110;28;20209;-71
2023/02/07 15:51:30;;;;;;;6.53;3.40;;;5.10;99.90;;;;;;4982284;28;20531;-71
2023/02/07 15:54:00;;;;;;;6.60;3.07;;;5.20;99.90;;;;;;4978426;28;20208;-71
2023/02/07 15:56:29;;;;;;;5.80;3.23;;;5.30;99.90;;;;;;4981142;28;20801;-71
2023/02/07 15:59:09;;;;;;;4.53;2.50;;;5.10;99.90;;;;;;4981461;28;20899;-71
2023/02/07 16:01:38;;;;;;;3.37;2.10;;;5.10;99.90;;;;;;4958771;28;22565;-71
2023/02/07 16:04:04;;;;;;;4.77;2.40;;;5.00;99.90;;;;;;4978999;28;20196;-71
2023/02/07 16:06:31;;;;;;;6.73;2.10;;;5.00;99.90;;;;;;4964552;28;20194;-71
2023/02/07 16:09:02;;;;;;;8.53;2.20;;;5.00;99.90;;;;;;4975565;28;20197;-71
2023/02/07 16:11:29;;;;;;;5.57;2.43;;;4.90;99.90;;;;;;4974353;28;20197;-71
2023/02/07 16:14:13;;;;;;;4.17;2.30;;;5.00;99.90;;;;;;4974925;28;20197;-71
2023/02/07 16:17:01;;;;;;;2.90;1.80;;;5.20;99.90;;;;;;4977782;28;20205;-71
2023/02/07 16:19:30;;;;;;;5.60;2.03;;;5.30;99.90;;;;;;4978728;28;20312;-71
2023/02/07 16:22:10;;;;;;;3.90;1.80;;;5.20;99.90;;;;;;4976999;28;20212;-71
2023/02/07 16:24:41;;;;;;;2.53;1.50;;;5.60;99.90;;;;;;4950254;28;20186;-71
2023/02/07 16:27:16;;;;;;;3.33;1.30;;;5.50;99.90;;;;;;4968907;28;20640;-71
2023/02/07 16:29:43;;;;;;;1.70;1.20;;;5.80;99.90;;;;;;4975909;28;20240;-71
2023/02/07 16:32:11;;;;;;;15.43;1.90;;;5.80;99.90;;;;;;4977445;28;20259;-71
2023/02/07 16:34:38;;;;;;;4.23;1.70;;;5.60;99.90;;;;;;4983971;28;20196;-71
2023/02/07 16:37:04;;;;;;;4.30;1.63;;;5.50;99.90;;;;;;4980886;28;20181;-71
2023/02/07 16:39:30;;;;;;;6.20;1.60;;;5.30;99.90;;;;;;4979752;28;20220;-71
2023/02/07 16:42:06;;;;;;;6.43;2.00;;;5.10;99.90;;;;;;4973596;28;20206;-71
2023/02/07 16:44:36;;;;;;;2.10;1.63;;;5.10;99.90;;;;;;4980696;28;20231;-71
2023/02/07 16:47:02;;;;;;;3.03;2.27;;;5.00;99.90;;;;;;4978970;28;20200;-71
2023/02/07 16:49:31;;;;;;;4.13;2.53;;;4.90;99.90;;;;;;4977269;28;20193;-71
2023/02/07 16:51:58;;;;;;;5.03;2.10;;;4.80;99.90;;;;;;4974635;28;20582;-71
2023/02/07 16:54:24;;;;;;;3.60;2.10;;;4.80;99.90;;;;;;4978511;28;20528;-71
2023/02/07 16:56:56;;;;;;;3.07;2.00;;;4.90;99.90;;;;;;4976357;28;20533;-71
2023/02/07 16:59:23;;;;;;;5.90;2.00;;;4.80;99.90;;;;;;4979559;28;20209;-71
2023/02/07 17:01:52;;;;;;;3.50;2.10;;;4.80;99.90;;;;;;4978812;28;20192;-71
2023/02/07 17:04:20;;;;;;;6.07;2.10;;;4.60;99.90;;;;;;4982797;28;20573;-71
2023/02/07 17:06:48;;;;;;;3.27;2.37;;;4.50;99.90;;;;;;4984553;28;20201;-71
2023/02/07 17:09:17;;;;;;;2.97;1.87;;;4.50;99.90;;;;;;4995650;28;20630;-71
2023/02/07 17:11:44;;;;;;;4.27;2.17;;;4.40;99.90;;;;;;4971277;28;20186;-71
2023/02/07 17:14:10;;;;;;;3.60;1.83;;;4.30;99.90;;;;;;4980364;28;20256;-71
2023/02/07 17:16:37;;;;;;;3.57;2.03;;;4.30;99.90;;;;;;4979329;28;20546;-71
2023/02/07 17:19:17;;;;;;;3.57;1.70;;;4.20;99.90;;;;;;4972538;28;20225;-71
2023/02/07 17:21:45;;;;;;;4.97;2.07;;;4.30;99.90;;;;;;4972343;28;20196;-71
2023/02/07 17:24:12;;;;;;;2.07;1.70;;;4.20;99.90;;;;;;4981608;28;20193;-71
2023/02/07 17:26:43;;;;;;;3.00;1.80;;;4.20;99.90;;;;;;4995594;28;20303;-71
2023/02/07 17:29:12;;;;;;;2.50;1.60;;;4.10;99.90;;;;;;4974413;28;20196;-71
2023/02/07 17:31:40;;;;;;;6.93;2.23;;;4.20;99.90;;;;;;4975883;28;20197;-71
2023/02/07 17:34:06;;;;;;;3.27;1.80;;;4.30;99.90;;;;;;4975448;28;20197;-71
2023/02/07 17:36:33;;;;;;;4.03;1.80;;;4.20;99.90;;;;;;4977182;28;20683;-71
2023/02/07 17:39:01;;;;;;;3.50;2.03;;;4.10;99.90;;;;;;4991926;28;20217;-71
2023/02/07 17:41:27;;;;;;;4.47;2.20;;;4.10;99.90;;;;;;4987680;28;20185;-71
2023/02/07 17:43:54;;;;;;;3.00;2.00;;;4.10;99.90;;;;;;4974609;28;20725;-71
2023/02/07 17:46:24;;;;;;;3.53;2.10;;;4.00;99.90;;;;;;4978717;28;20184;-71
2023/02/07 17:48:52;;;;;;;4.57;2.17;;;4.00;99.90;;;;;;4982262;28;20680;-71
2023/02/07 17:51:22;;;;;;;4.30;2.20;;;3.90;99.90;;;;;;4985520;28;20696;-71
2023/02/07 17:53:49;;;;;;;4.17;1.97;;;3.90;99.90;;;;;;4982998;28;20198;-71
2023/02/07 17:56:31;;;;;;;3.23;2.27;;;3.90;99.90;;;;;;4979349;28;20197;-71
2023/02/07 17:59:01;;;;;;;5.33;2.30;;;3.90;99.90;;;;;;4983796;28;20217;-71
2023/02/07 18:01:29;;;;;;;5.00;2.83;;;3.90;99.90;;;;;;4980517;28;20422;-71
2023/02/07 18:03:55;;;;;;;5.07;2.33;;;3.90;99.90;;;;;;4981993;28;20205;-71
2023/02/07 18:06:25;;;;;;;4.73;2.30;;;3.90;99.90;;;;;;4984100;28;20272;-71
2023/02/07 18:08:53;;;;;;;3.97;2.30;;;3.70;99.90;;;;;;4977043;28;20769;-71
2023/02/07 18:11:21;;;;;;;4.43;2.77;;;3.70;99.90;;;;;;4980927;28;20189;-71
2023/02/07 18:13:49;;;;;;;5.53;2.70;;;3.80;99.90;;;;;;4950444;28;20201;-71
2023/02/07 18:16:22;;;;;;;4.00;2.10;;;3.70;99.90;;;;;;4982213;28;20189;-71
2023/02/07 18:18:55;;;;;;;3.50;2.00;;;3.60;99.90;;;;;;4978434;28;20665;-71
2023/02/07 18:21:22;;;;;;;3.30;2.03;;;3.60;99.90;;;;;;4981438;28;20186;-70
2023/02/07 18:23:51;;;;;;;3.00;1.90;;;3.60;99.90;;;;;;4974554;28;20205;-71
2023/02/07 18:26:18;;;;;;;5.60;1.80;;;3.50;99.90;;;;;;4974521;28;20209;-71
2023/02/07 18:28:45;;;;;;;4.80;1.60;;;3.60;99.90;;;;;;4978565;28;20186;-71
2023/02/07 18:31:21;;;;;;;3.40;1.47;;;3.60;99.90;;;;;;4978579;28;20213;-71
2023/02/07 18:33:49;;;;;;;4.57;2.10;;;3.50;99.90;;;;;;4977196;28;20267;-71
2023/02/07 18:36:17;;;;;;;4.33;2.33;;;3.40;99.90;;;;;;4979602;28;20201;-71
2023/02/07 18:38:44;;;;;;;5.57;2.60;;;3.30;99.90;;;;;;4973782;28;20221;-71
2023/02/07 18:41:13;;;;;;;4.87;2.27;;;3.20;99.90;;;;;;4977056;28;20288;-71
2023/02/07 18:43:41;;;;;;;3.27;2.10;;;3.10;99.90;;;;;;4984588;28;20616;-71
2023/02/07 18:46:18;;;;;;;4.23;2.03;;;3.20;99.90;;;;;;4996113;28;20206;-71
2023/02/07 18:48:44;;;;;;;3.93;2.13;;;3.70;99.90;;;;;;4976281;28;20194;-71
2023/02/07 18:51:13;;;;;;;4.17;2.20;;;4.00;99.90;;;;;;4977027;28;20232;-71
2023/02/07 18:53:40;;;;;;;4.90;2.47;;;3.90;99.90;;;;;;4981072;28;20201;-71
2023/02/07 18:56:11;;;;;;;3.47;1.83;;;3.90;99.90;;;;;;4988489;28;20346;-71
2023/02/07 18:58:38;;;;;;;4.43;1.83;;;3.90;99.90;;;;;;4985219;28;20848;-71
2023/02/07 19:01:12;;;;;;;6.00;2.47;;;3.80;99.90;;;;;;4995923;28;20312;-71
2023/02/07 19:03:38;;;;;;;4.23;2.20;;;3.70;99.90;;;;;;4985599;28;20206;-71
2023/02/07 19:06:07;;;;;;;5.27;1.80;;;3.60;99.90;;;;;;4983756;28;20624;-71
2023/02/07 19:08:33;;;;;;;3.13;2.00;;;3.60;99.90;;;;;;4968384;28;20778;-71
2023/02/07 19:11:04;;;;;;;4.60;2.50;;;3.60;99.90;;;;;;4978787;28;20190;-71
2023/02/07 19:13:32;;;;;;;3.83;2.10;;;3.60;99.90;;;;;;4980436;28;20194;-71
2023/02/07 19:16:10;;;;;;;3.27;2.03;;;3.60;99.90;;;;;;4993585;28;20284;-71
2023/02/07 19:18:37;;;;;;;3.73;1.70;;;3.70;99.90;;;;;;4972629;28;20232;-71
2023/02/07 19:21:14;;;;;;;3.33;2.03;;;3.70;99.90;;;;;;4973623;28;20226;-71
2023/02/07 19:23:41;;;;;;;3.53;1.90;;;3.70;99.90;;;;;;4972672;28;20186;-71
2023/02/07 19:26:08;;;;;;;3.07;1.70;;;3.70;99.90;;;;;;4978924;28;20220;-71
2023/02/07 19:28:37;;;;;;;4.20;1.50;;;3.70;99.90;;;;;;4978723;28;20194;-71
2023/02/07 19:31:05;;;;;;;3.60;1.70;;;3.80;99.90;;;;;;4972227;28;20233;-71
2023/02/07 19:33:31;;;;;;;3.87;1.30;;;3.80;99.90;;;;;;4977757;28;20262;-71
2023/02/07 19:36:06;;;;;;;3.40;1.40;;;3.80;99.90;;;;;;4972392;28;20564;-71
2023/02/07 19:38:33;;;;;;;2.60;1.57;;;3.80;99.90;;;;;;4977650;28;20259;-71
2023/02/07 19:41:00;;;;;;;4.03;1.30;;;3.80;99.90;;;;;;4968344;28;20181;-71
2023/02/07 19:43:27;;;;;;;2.43;1.40;;;3.80;99.90;;;;;;4978940;28;20688;-71
2023/02/07 19:45:53;;;;;;;4.67;1.60;;;3.90;99.90;;;;;;4973068;28;20201;-71
2023/02/07 19:48:21;;;;;;;3.57;1.40;;;3.90;99.90;;;;;;4976894;28;20190;-71
2023/02/07 19:50:47;;;;;;;6.00;1.47;;;3.90;99.90;;;;;;4979473;28;20196;-71
2023/02/07 19:53:15;;;;;;;1.13;1.03;;;3.90;99.90;;;;;;4977712;28;20194;-71
2023/02/07 19:55:41;;;;;;;1.83;1.10;;;4.10;99.90;;;;;;4980011;28;20186;-71
2023/02/07 19:58:07;;;;;;;2.97;1.33;;;4.00;99.90;;;;;;4976687;28;20797;-71
2023/02/07 20:00:34;;;;;;;3.37;1.60;;;4.10;99.90;;;;;;4973978;28;20347;-71
2023/02/07 20:03:00;;;;;;;4.23;1.40;;;4.00;99.90;;;;;;4965213;28;20730;-71
2023/02/07 20:05:27;;;;;;;3.67;1.40;;;4.40;99.90;;;;;;4994106;28;20196;-71
2023/02/07 20:07:55;;;;;;;4.47;1.60;;;4.50;99.90;;;;;;4984655;28;20548;-71
2023/02/07 20:10:21;;;;;;;3.20;1.50;;;4.30;99.90;;;;;;4986761;28;20574;-71
2023/02/07 20:12:47;;;;;;;3.30;1.50;;;4.10;99.90;;;;;;4960104;28;20687;-71
2023/02/07 20:15:14;;;;;;;2.83;1.40;;;4.10;99.90;;;;;;4985001;28;20565;-71
2023/02/07 20:17:40;;;;;;;2.67;1.60;;;3.90;99.90;;;;;;4977694;28;20193;-71
2023/02/07 20:20:07;;;;;;;3.60;1.30;;;3.80;99.90;;;;;;4981740;28;20313;-71
2023/02/07 20:22:33;;;;;;;3.13;1.50;;;3.80;99.90;;;;;;4981284;28;20190;-71
2023/02/07 20:25:00;;;;;;;2.97;1.43;;;3.80;99.90;;;;;;4987422;28;20203;-71
2023/02/07 20:27:27;;;;;;;3.57;1.43;;;3.80;99.90;;;;;;4979141;28;20220;-71
2023/02/07 20:29:53;;;;;;;3.43;1.63;;;3.80;99.90;;;;;;4972185;28;20303;-71
2023/02/07 20:32:19;;;;;;;3.37;2.00;;;3.80;99.90;;;;;;4978301;28;20582;-71
2023/02/07 20:34:45;;;;;;;3.33;2.10;;;3.70;99.90;;;;;;4979521;28;20285;-71
2023/02/07 20:37:12;;;;;;;2.83;2.00;;;3.80;99.90;;;;;;4979140;28;20279;-71
2023/02/07 20:39:38;;;;;;;2.47;1.70;;;3.80;99.90;;;;;;4974691;28;20198;-71
2023/02/07 20:42:04;;;;;;;2.30;1.37;;;3.80;99.90;;;;;;4981847;28;20228;-71
2023/02/07 20:44:31;;;;;;;2.03;1.60;;;3.90;99.90;;;;;;4985123;28;20190;-71
2023/02/07 20:46:59;;;;;;;2.17;1.53;;;3.80;99.90;;;;;;4975755;28;20198;-71
2023/02/07 20:49:30;;;;;;;2.40;1.70;;;3.80;99.90;;;;;;4976696;28;20225;-71
2023/02/07 20:51:58;;;;;;;2.30;1.70;;;3.90;99.90;;;;;;4974940;28;20739;-71
2023/02/07 20:54:28;;;;;;;2.30;1.70;;;3.90;99.90;;;;;;4982469;28;20586;-69
2023/02/07 20:56:56;;;;;;;2.93;1.50;;;3.90;99.90;;;;;;4958944;28;20205;-69
2023/02/07 20:59:32;;;;;;;4.00;1.67;;;3.90;99.90;;;;;;4978524;28;20300;-70
2023/02/07 21:01:59;;;;;;;3.17;1.70;;;3.90;99.90;;;;;;4981136;28;20251;-71
2023/02/07 21:04:29;;;;;;;2.83;1.50;;;3.90;99.90;;;;;;4978193;28;20679;-71
2023/02/07 21:06:55;;;;;;;4.63;2.07;;;3.90;99.90;;;;;;4976325;28;20544;-71
2023/02/07 21:09:21;;;;;;;3.50;1.77;;;3.90;99.90;;;;;;4980587;28;20240;-71
2023/02/07 21:11:51;;;;;;;4.73;1.83;;;3.90;99.90;;;;;;4974711;28;20256;-71
2023/02/07 21:14:30;;;;;;;2.67;1.53;;;3.90;99.90;;;;;;4979206;28;20247;-71
2023/02/07 21:17:05;;;;;;;2.43;1.53;;;3.80;99.90;;;;;;4975648;28;20193;-71
2023/02/07 21:19:32;;;;;;;3.77;1.60;;;3.70;99.90;;;;;;4980796;28;20216;-71
2023/02/07 21:21:58;;;;;;;2.83;1.50;;;3.60;99.90;;;;;;4976226;28;20202;-71
2023/02/07 21:24:25;;;;;;;3.17;1.70;;;3.50;99.90;;;;;;4979240;28;20921;-71
2023/02/07 21:26:53;;;;;;;2.13;1.50;;;3.40;99.90;;;;;;4978689;28;20197;-71
2023/02/07 21:29:20;;;;;;;5.23;2.63;;;3.30;99.90;;;;;;4970965;28;20716;-71
2023/02/07 21:31:48;;;;;;;4.27;2.77;;;3.30;99.90;;;;;;4977982;28;20216;-71
2023/02/07 21:34:16;;;;;;;4.57;2.23;;;3.30;99.90;;;;;;4978402;28;20229;-71
2023/02/07 21:36:43;;;;;;;3.63;1.90;;;3.40;99.90;;;;;;4976327;28;20190;-71
2023/02/07 21:39:11;;;;;;;3.80;2.00;;;3.30;99.90;;;;;;4979759;28;20285;-71
2023/02/07 21:41:41;;;;;;;3.40;2.13;;;3.40;99.90;;;;;;4977154;28;20209;-71
2023/02/07 21:44:09;;;;;;;3.57;1.80;;;3.60;99.90;;;;;;4978919;28;20195;-71
2023/02/07 21:46:38;;;;;;;2.50;1.53;;;3.60;99.90;;;;;;4979274;28;20213;-71
2023/02/07 21:49:09;;;;;;;2.93;1.60;;;3.70;99.90;;;;;;4978380;28;20234;-71
2023/02/07 21:51:36;;;;;;;1.77;1.40;;;3.80;99.90;;;;;;4962663;28;20189;-71